sensor_id;sensor_type;location;lat;lon;timestamp;pressure;altitude;pressure_sealevel;temperature;humidity
7297;BME280;40758;54.038;11.684;2023-09-12T00:01:06;101006.00;;;15.49;100.00
7297;BME280;40758;54.038;11.684;2023-09-12T00:03:34;101012.94;;;15.40;100.00
7297;BME280;40758;54.038;11.684;2023-09-12T00:06:02;101004.16;;;15.38;100.00
7297;BME280;40758;54.038;11.684;2023-09-12T00:08:30;101009.75;;;15.60;100.00
7297;BME280;40758;54.038;11.684;2023-09-12T00:11:05;100997.88;;;15.54;100.00
7297;BME280;40758;54.038;11.684;2023-09-12T00:13:39;101005.91;;;15.44;100.00
7297;BME280;40758;54.038;11.684;2023-09-12T00:16:06;101003.34;;;15.37;100.00
7297;BME280;40758;54.038;11.684;2023-09-12T00:18:37;100999.59;;;15.27;100.00
7297;BME280;40758;54.038;11.684;2023-09-12T00:21:03;101003.16;;;15.27;100.00
7297;BME280;40758;54.038;11.684;2023-09-12T00:23:31;101002.38;;;15.15;100.00
7297;BME280;40758;54.038;11.684;2023-09-12T00:25:58;100988.97;;;15.13;100.00
7297;BME280;40758;54.038;11.684;2023-09-12T00:28:24;101000.03;;;15.07;100.00
7297;BME280;40758;54.038;11.684;2023-09-12T00:30:51;100993.25;;;15.09;100.00
7297;BME280;40758;54.038;11.684;2023-09-12T00:33:19;100990.41;;;15.04;100.00
7297;BME280;40758;54.038;11.684;2023-09-12T00:35:46;100980.47;;;14.98;100.00
7297;BME280;40758;54.038;11.684;2023-09-12T00:38:13;100987.88;;;14.86;100.00
7297;BME280;40758;54.038;11.684;2023-09-12T00:40:40;100988.88;;;14.80;100.00
7297;BME280;40758;54.038;11.684;2023-09-12T00:43:07;100993.16;;;14.76;100.00
7297;BME280;40758;54.038;11.684;2023-09-12T00:45:33;100992.56;;;14.74;100.00
7297;BME280;40758;54.038;11.684;2023-09-12T00:48:01;100998.19;;;14.67;100.00
7297;BME280;40758;54.038;11.684;2023-09-12T00:50:31;100998.91;;;14.62;100.00
7297;BME280;40758;54.038;11.684;2023-09-12T00:52:58;100991.03;;;14.66;100.00
7297;BME280;40758;54.038;11.684;2023-09-12T00:55:26;100988.00;;;14.91;100.00
7297;BME280;40758;54.038;11.684;2023-09-12T00:57:53;100980.66;;;15.08;100.00
7297;BME280;40758;54.038;11.684;2023-09-12T01:00:22;100991.03;;;14.95;100.00
7297;BME280;40758;54.038;11.684;2023-09-12T01:02:48;100998.72;;;14.81;100.00
7297;BME280;40758;54.038;11.684;2023-09-12T01:05:18;101001.25;;;14.71;100.00
7297;BME280;40758;54.038;11.684;2023-09-12T01:07:46;100993.53;;;14.68;100.00
7297;BME280;40758;54.038;11.684;2023-09-12T01:10:13;100981.34;;;14.47;100.00
7297;BME280;40758;54.038;11.684;2023-09-12T01:12:40;101003.91;;;14.54;100.00
7297;BME280;40758;54.038;11.684;2023-09-12T01:15:07;101003.22;;;14.47;100.00
7297;BME280;40758;54.038;11.684;2023-09-12T01:17:42;100985.41;;;14.32;100.00
7297;BME280;40758;54.038;11.684;2023-09-12T01:20:16;101015.31;;;14.51;100.00
7297;BME280;40758;54.038;11.684;2023-09-12T01:22:59;101015.66;;;14.54;100.00
7297;BME280;40758;54.038;11.684;2023-09-12T01:28:29;101020.72;;;14.74;100.00
7297;BME280;40758;54.038;11.684;2023-09-12T01:30:58;101002.75;;;15.07;100.00
7297;BME280;40758;54.038;11.684;2023-09-12T01:33:27;101008.53;;;15.22;100.00
7297;BME280;40758;54.038;11.684;2023-09-12T01:35:54;101001.66;;;15.36;100.00
7297;BME280;40758;54.038;11.684;2023-09-12T01:38:21;101004.50;;;15.58;100.00
7297;BME280;40758;54.038;11.684;2023-09-12T01:40:52;101014.84;;;15.68;100.00
7297;BME280;40758;54.038;11.684;2023-09-12T01:43:23;101018.19;;;15.58;100.00
7297;BME280;40758;54.038;11.684;2023-09-12T01:45:54;101019.69;;;15.49;100.00
7297;BME280;40758;54.038;11.684;2023-09-12T01:48:25;100977.41;;;15.11;100.00
7297;BME280;40758;54.038;11.684;2023-09-12T01:50:53;101015.41;;;15.25;100.00
7297;BME280;40758;54.038;11.684;2023-09-12T01:53:20;101018.69;;;15.10;100.00
7297;BME280;40758;54.038;11.684;2023-09-12T01:55:53;101013.03;;;15.00;100.00
7297;BME280;40758;54.038;11.684;2023-09-12T01:58:21;101000.59;;;14.92;100.00
7297;BME280;40758;54.038;11.684;2023-09-12T02:00:47;101010.28;;;15.00;100.00
7297;BME280;40758;54.038;11.684;2023-09-12T02:03:15;101013.38;;;15.03;100.00
7297;BME280;40758;54.038;11.684;2023-09-12T02:05:42;101016.00;;;14.98;100.00
7297;BME280;40758;54.038;11.684;2023-09-12T02:08:09;101027.41;;;14.95;100.00
7297;BME280;40758;54.038;11.684;2023-09-12T02:10:35;101028.75;;;14.93;100.00
7297;BME280;40758;54.038;11.684;2023-09-12T02:13:02;101027.00;;;14.86;100.00
7297;BME280;40758;54.038;11.684;2023-09-12T02:15:29;101040.41;;;14.88;100.00
7297;BME280;40758;54.038;11.684;2023-09-12T02:17:56;101037.81;;;14.81;100.00
7297;BME280;40758;54.038;11.684;2023-09-12T02:20:22;101026.34;;;14.68;100.00
7297;BME280;40758;54.038;11.684;2023-09-12T02:22:52;101055.03;;;14.82;100.00
7297;BME280;40758;54.038;11.684;2023-09-12T02:25:19;101038.19;;;14.85;100.00
7297;BME280;40758;54.038;11.684;2023-09-12T02:27:47;101047.44;;;15.12;100.00
7297;BME280;40758;54.038;11.684;2023-09-12T02:30:14;101032.13;;;15.11;100.00
7297;BME280;40758;54.038;11.684;2023-09-12T02:32:43;101034.97;;;15.16;100.00
7297;BME280;40758;54.038;11.684;2023-09-12T02:35:11;101033.16;;;15.22;100.00
7297;BME280;40758;54.038;11.684;2023-09-12T02:37:37;101033.03;;;15.17;100.00
7297;BME280;40758;54.038;11.684;2023-09-12T02:40:05;101028.50;;;15.23;100.00
7297;BME280;40758;54.038;11.684;2023-09-12T02:42:32;101011.09;;;15.29;100.00
7297;BME280;40758;54.038;11.684;2023-09-12T02:44:59;101020.59;;;15.38;100.00
7297;BME280;40758;54.038;11.684;2023-09-12T02:47:26;101019.78;;;15.54;100.00
7297;BME280;40758;54.038;11.684;2023-09-12T02:49:53;100993.31;;;15.43;100.00
7297;BME280;40758;54.038;11.684;2023-09-12T02:52:19;101014.94;;;15.44;100.00
7297;BME280;40758;54.038;11.684;2023-09-12T02:54:46;101024.06;;;15.33;100.00
7297;BME280;40758;54.038;11.684;2023-09-12T02:57:13;101008.38;;;15.00;100.00
7297;BME280;40758;54.038;11.684;2023-09-12T02:59:49;101022.47;;;14.92;100.00
7297;BME280;40758;54.038;11.684;2023-09-12T03:02:16;101031.91;;;15.01;100.00
7297;BME280;40758;54.038;11.684;2023-09-12T03:04:42;101018.84;;;15.03;100.00
7297;BME280;40758;54.038;11.684;2023-09-12T03:07:09;101008.59;;;15.10;100.00
7297;BME280;40758;54.038;11.684;2023-09-12T03:09:36;101007.81;;;15.27;100.00
7297;BME280;40758;54.038;11.684;2023-09-12T03:12:05;101000.66;;;15.26;100.00
7297;BME280;40758;54.038;11.684;2023-09-12T03:14:32;100999.63;;;15.60;100.00
7297;BME280;40758;54.038;11.684;2023-09-12T03:16:59;100994.75;;;15.79;100.00
7297;BME280;40758;54.038;11.684;2023-09-12T03:19:26;100985.72;;;15.79;100.00
7297;BME280;40758;54.038;11.684;2023-09-12T03:21:53;100986.63;;;15.84;100.00
7297;BME280;40758;54.038;11.684;2023-09-12T03:24:22;100983.16;;;15.72;100.00
7297;BME280;40758;54.038;11.684;2023-09-12T03:26:51;100989.38;;;15.67;100.00
7297;BME280;40758;54.038;11.684;2023-09-12T03:29:18;100976.47;;;15.51;100.00
7297;BME280;40758;54.038;11.684;2023-09-12T03:31:45;100987.16;;;15.53;100.00
7297;BME280;40758;54.038;11.684;2023-09-12T03:34:11;100966.44;;;15.40;100.00
7297;BME280;40758;54.038;11.684;2023-09-12T03:36:38;100989.59;;;15.49;100.00
7297;BME280;40758;54.038;11.684;2023-09-12T03:39:05;100993.47;;;15.53;100.00
7297;BME280;40758;54.038;11.684;2023-09-12T03:41:35;100995.38;;;15.53;100.00
7297;BME280;40758;54.038;11.684;2023-09-12T03:44:02;100989.06;;;15.52;100.00
7297;BME280;40758;54.038;11.684;2023-09-12T03:46:28;100992.41;;;15.54;100.00
7297;BME280;40758;54.038;11.684;2023-09-12T03:48:55;100994.81;;;15.51;100.00
7297;BME280;40758;54.038;11.684;2023-09-12T03:51:22;101015.69;;;15.40;100.00
7297;BME280;40758;54.038;11.684;2023-09-12T03:53:48;101014.34;;;15.26;100.00
7297;BME280;40758;54.038;11.684;2023-09-12T03:56:16;101026.84;;;15.22;100.00
7297;BME280;40758;54.038;11.684;2023-09-12T03:58:46;101029.00;;;15.20;100.00
7297;BME280;40758;54.038;11.684;2023-09-12T04:01:14;101031.50;;;15.21;100.00
7297;BME280;40758;54.038;11.684;2023-09-12T04:03:41;101045.41;;;15.20;100.00
7297;BME280;40758;54.038;11.684;2023-09-12T04:06:08;101055.28;;;15.21;100.00
7297;BME280;40758;54.038;11.684;2023-09-12T04:08:35;101054.31;;;15.27;100.00
7297;BME280;40758;54.038;11.684;2023-09-12T04:11:01;101059.50;;;15.57;100.00
7297;BME280;40758;54.038;11.684;2023-09-12T04:13:28;101068.50;;;16.19;100.00
7297;BME280;40758;54.038;11.684;2023-09-12T04:15:55;101081.19;;;16.81;100.00
7297;BME280;40758;54.038;11.684;2023-09-12T04:18:22;101083.03;;;17.19;100.00
7297;BME280;40758;54.038;11.684;2023-09-12T04:20:49;101085.00;;;17.51;100.00
7297;BME280;40758;54.038;11.684;2023-09-12T04:23:16;101074.50;;;17.70;100.00
7297;BME280;40758;54.038;11.684;2023-09-12T04:25:45;101066.50;;;17.68;100.00
7297;BME280;40758;54.038;11.684;2023-09-12T04:28:12;101094.19;;;17.89;100.00
7297;BME280;40758;54.038;11.684;2023-09-12T04:30:38;101087.09;;;17.93;100.00
7297;BME280;40758;54.038;11.684;2023-09-12T04:33:06;101086.56;;;17.96;100.00
7297;BME280;40758;54.038;11.684;2023-09-12T04:35:33;101084.94;;;18.00;100.00
7297;BME280;40758;54.038;11.684;2023-09-12T04:38:03;101084.13;;;17.99;100.00
7297;BME280;40758;54.038;11.684;2023-09-12T04:40:30;101082.16;;;17.95;100.00
7297;BME280;40758;54.038;11.684;2023-09-12T04:42:57;101081.31;;;17.94;100.00
7297;BME280;40758;54.038;11.684;2023-09-12T04:45:24;101065.06;;;17.88;100.00
7297;BME280;40758;54.038;11.684;2023-09-12T04:47:51;101066.22;;;17.92;100.00
7297;BME280;40758;54.038;11.684;2023-09-12T04:50:18;101060.41;;;17.88;100.00
7297;BME280;40758;54.038;11.684;2023-09-12T04:52:44;101062.88;;;17.90;100.00
7297;BME280;40758;54.038;11.684;2023-09-12T04:55:15;101056.56;;;17.89;100.00
7297;BME280;40758;54.038;11.684;2023-09-12T04:57:42;101040.63;;;17.86;100.00
7297;BME280;40758;54.038;11.684;2023-09-12T05:00:10;101056.25;;;17.86;100.00
7297;BME280;40758;54.038;11.684;2023-09-12T05:02:37;101058.16;;;17.85;100.00
7297;BME280;40758;54.038;11.684;2023-09-12T05:05:11;101052.03;;;17.73;100.00
7297;BME280;40758;54.038;11.684;2023-09-12T05:07:38;101067.16;;;17.75;100.00
7297;BME280;40758;54.038;11.684;2023-09-12T05:10:05;101066.56;;;17.73;100.00
7297;BME280;40758;54.038;11.684;2023-09-12T05:12:32;101059.16;;;17.74;100.00
7297;BME280;40758;54.038;11.684;2023-09-12T05:14:58;101069.97;;;17.80;100.00
7297;BME280;40758;54.038;11.684;2023-09-12T05:17:25;101069.16;;;17.85;100.00
7297;BME280;40758;54.038;11.684;2023-09-12T05:19:52;101056.56;;;17.89;100.00
7297;BME280;40758;54.038;11.684;2023-09-12T05:22:19;101041.44;;;17.87;100.00
7297;BME280;40758;54.038;11.684;2023-09-12T05:24:46;101042.56;;;17.91;100.00
7297;BME280;40758;54.038;11.684;2023-09-12T05:27:13;101052.94;;;17.84;100.00
7297;BME280;40758;54.038;11.684;2023-09-12T05:29:40;101051.78;;;17.74;100.00
7297;BME280;40758;54.038;11.684;2023-09-12T05:32:07;101057.28;;;17.74;100.00
7297;BME280;40758;54.038;11.684;2023-09-12T05:34:34;101048.19;;;17.74;100.00
7297;BME280;40758;54.038;11.684;2023-09-12T05:37:01;101056.47;;;17.79;100.00
7297;BME280;40758;54.038;11.684;2023-09-12T05:39:29;101061.22;;;17.89;100.00
7297;BME280;40758;54.038;11.684;2023-09-12T05:41:55;101074.50;;;18.02;100.00
7297;BME280;40758;54.038;11.684;2023-09-12T05:44:22;101087.25;;;18.13;100.00
7297;BME280;40758;54.038;11.684;2023-09-12T05:46:49;101057.28;;;18.12;100.00
7297;BME280;40758;54.038;11.684;2023-09-12T05:49:16;101083.81;;;18.33;100.00
7297;BME280;40758;54.038;11.684;2023-09-12T05:51:43;101081.41;;;18.42;100.00
7297;BME280;40758;54.038;11.684;2023-09-12T05:54:09;101092.22;;;18.58;100.00
7297;BME280;40758;54.038;11.684;2023-09-12T05:56:37;101079.47;;;18.84;100.00
7297;BME280;40758;54.038;11.684;2023-09-12T05:59:05;101084.44;;;18.87;100.00
7297;BME280;40758;54.038;11.684;2023-09-12T06:01:34;101088.84;;;18.94;100.00
7297;BME280;40758;54.038;11.684;2023-09-12T06:04:01;101091.09;;;18.97;100.00
7297;BME280;40758;54.038;11.684;2023-09-12T06:06:28;101091.59;;;18.94;100.00
7297;BME280;40758;54.038;11.684;2023-09-12T06:08:55;101069.50;;;18.68;100.00
7297;BME280;40758;54.038;11.684;2023-09-12T06:11:23;101079.59;;;18.63;100.00
7297;BME280;40758;54.038;11.684;2023-09-12T06:13:50;101118.22;;;18.78;100.00
7297;BME280;40758;54.038;11.684;2023-09-12T06:16:16;101123.13;;;18.71;100.00
7297;BME280;40758;54.038;11.684;2023-09-12T06:18:43;101120.56;;;18.59;100.00
7297;BME280;40758;54.038;11.684;2023-09-12T06:21:10;101127.19;;;18.63;100.00
7297;BME280;40758;54.038;11.684;2023-09-12T06:23:37;101145.03;;;18.60;100.00
7297;BME280;40758;54.038;11.684;2023-09-12T06:26:04;101151.34;;;18.61;100.00
7297;BME280;40758;54.038;11.684;2023-09-12T06:28:31;101153.03;;;18.62;100.00
7297;BME280;40758;54.038;11.684;2023-09-12T06:30:59;101155.25;;;18.65;100.00
7297;BME280;40758;54.038;11.684;2023-09-12T06:33:26;101148.72;;;18.71;100.00
7297;BME280;40758;54.038;11.684;2023-09-12T06:35:53;101140.94;;;18.63;100.00
7297;BME280;40758;54.038;11.684;2023-09-12T06:38:21;101126.28;;;18.52;100.00
7297;BME280;40758;54.038;11.684;2023-09-12T06:40:48;101148.97;;;18.70;100.00
7297;BME280;40758;54.038;11.684;2023-09-12T06:43:15;101156.44;;;18.74;100.00
7297;BME280;40758;54.038;11.684;2023-09-12T06:45:43;101153.72;;;18.79;100.00
7297;BME280;40758;54.038;11.684;2023-09-12T06:48:11;101157.81;;;18.77;100.00
7297;BME280;40758;54.038;11.684;2023-09-12T06:50:38;101156.91;;;18.66;100.00
7297;BME280;40758;54.038;11.684;2023-09-12T06:53:05;101165.09;;;18.61;100.00
7297;BME280;40758;54.038;11.684;2023-09-12T06:55:37;101153.88;;;18.63;100.00
7297;BME280;40758;54.038;11.684;2023-09-12T06:58:04;101150.81;;;18.59;100.00
7297;BME280;40758;54.038;11.684;2023-09-12T07:00:30;101166.78;;;18.62;100.00
7297;BME280;40758;54.038;11.684;2023-09-12T07:02:58;101175.03;;;18.62;100.00
7297;BME280;40758;54.038;11.684;2023-09-12T07:05:26;101180.34;;;18.69;100.00
7297;BME280;40758;54.038;11.684;2023-09-12T07:07:55;101173.75;;;18.70;100.00
7297;BME280;40758;54.038;11.684;2023-09-12T07:10:22;101179.56;;;18.78;100.00
7297;BME280;40758;54.038;11.684;2023-09-12T07:12:52;101176.31;;;18.86;100.00
7297;BME280;40758;54.038;11.684;2023-09-12T07:15:20;101169.19;;;18.96;100.00
7297;BME280;40758;54.038;11.684;2023-09-12T07:17:47;101150.84;;;19.11;100.00
7297;BME280;40758;54.038;11.684;2023-09-12T07:20:14;101149.53;;;19.24;100.00
7297;BME280;40758;54.038;11.684;2023-09-12T07:22:42;101144.53;;;19.11;100.00
7297;BME280;40758;54.038;11.684;2023-09-12T07:25:09;101121.63;;;19.00;100.00
7297;BME280;40758;54.038;11.684;2023-09-12T07:27:38;101116.69;;;19.07;100.00
7297;BME280;40758;54.038;11.684;2023-09-12T07:30:06;101113.34;;;18.95;100.00
7297;BME280;40758;54.038;11.684;2023-09-12T07:32:33;101120.75;;;18.90;100.00
7297;BME280;40758;54.038;11.684;2023-09-12T07:35:02;101104.22;;;18.79;100.00
7297;BME280;40758;54.038;11.684;2023-09-12T07:37:29;101114.63;;;18.77;100.00
7297;BME280;40758;54.038;11.684;2023-09-12T07:39:56;101121.13;;;18.66;100.00
7297;BME280;40758;54.038;11.684;2023-09-12T07:42:23;101122.75;;;18.57;100.00
7297;BME280;40758;54.038;11.684;2023-09-12T07:44:50;101109.44;;;18.44;100.00
7297;BME280;40758;54.038;11.684;2023-09-12T07:47:18;101116.84;;;18.38;100.00
7297;BME280;40758;54.038;11.684;2023-09-12T07:49:45;101116.81;;;18.33;100.00
7297;BME280;40758;54.038;11.684;2023-09-12T07:52:12;101128.03;;;18.26;100.00
7297;BME280;40758;54.038;11.684;2023-09-12T07:54:38;101128.25;;;18.20;100.00
7297;BME280;40758;54.038;11.684;2023-09-12T07:57:05;101128.41;;;18.08;100.00
7297;BME280;40758;54.038;11.684;2023-09-12T07:59:33;101124.47;;;17.94;100.00
7297;BME280;40758;54.038;11.684;2023-09-12T08:02:00;101141.22;;;17.97;100.00
7297;BME280;40758;54.038;11.684;2023-09-12T08:04:26;101116.88;;;17.79;100.00
7297;BME280;40758;54.038;11.684;2023-09-12T08:06:53;101137.31;;;17.88;100.00
7297;BME280;40758;54.038;11.684;2023-09-12T08:09:47;101149.69;;;17.91;100.00
7297;BME280;40758;54.038;11.684;2023-09-12T08:12:16;101129.59;;;17.85;100.00
7297;BME280;40758;54.038;11.684;2023-09-12T08:14:43;101130.22;;;17.92;100.00
7297;BME280;40758;54.038;11.684;2023-09-12T08:17:12;101145.66;;;17.98;100.00
7297;BME280;40758;54.038;11.684;2023-09-12T08:19:45;101141.59;;;18.06;100.00
7297;BME280;40758;54.038;11.684;2023-09-12T08:22:12;101145.03;;;18.23;100.00
7297;BME280;40758;54.038;11.684;2023-09-12T08:24:39;101147.41;;;18.47;100.00
7297;BME280;40758;54.038;11.684;2023-09-12T08:27:07;101142.94;;;18.73;100.00
7297;BME280;40758;54.038;11.684;2023-09-12T08:29:34;101149.41;;;18.94;100.00
7297;BME280;40758;54.038;11.684;2023-09-12T08:32:01;101144.00;;;19.14;100.00
7297;BME280;40758;54.038;11.684;2023-09-12T08:34:29;101138.59;;;19.45;100.00
7297;BME280;40758;54.038;11.684;2023-09-12T08:36:55;101109.75;;;19.62;100.00
7297;BME280;40758;54.038;11.684;2023-09-12T08:39:26;101132.66;;;19.88;100.00
7297;BME280;40758;54.038;11.684;2023-09-12T08:41:54;101128.81;;;19.84;100.00
7297;BME280;40758;54.038;11.684;2023-09-12T08:44:21;101137.06;;;20.05;100.00
7297;BME280;40758;54.038;11.684;2023-09-12T08:46:49;101137.09;;;20.25;100.00
7297;BME280;40758;54.038;11.684;2023-09-12T08:49:16;101135.97;;;20.31;100.00
7297;BME280;40758;54.038;11.684;2023-09-12T08:51:46;101124.38;;;20.34;100.00
7297;BME280;40758;54.038;11.684;2023-09-12T08:54:13;101138.44;;;20.58;100.00
7297;BME280;40758;54.038;11.684;2023-09-12T08:56:41;101138.31;;;21.04;100.00
7297;BME280;40758;54.038;11.684;2023-09-12T08:59:10;101125.59;;;21.13;100.00
7297;BME280;40758;54.038;11.684;2023-09-12T09:01:43;101121.50;;;21.01;100.00
7297;BME280;40758;54.038;11.684;2023-09-12T09:04:11;101140.53;;;21.02;100.00
7297;BME280;40758;54.038;11.684;2023-09-12T09:06:40;101150.78;;;20.96;100.00
7297;BME280;40758;54.038;11.684;2023-09-12T09:09:12;101111.72;;;20.59;100.00
7297;BME280;40758;54.038;11.684;2023-09-12T09:11:43;101142.06;;;20.59;100.00
7297;BME280;40758;54.038;11.684;2023-09-12T09:14:13;101148.66;;;20.37;100.00
7297;BME280;40758;54.038;11.684;2023-09-12T09:16:40;101159.69;;;20.17;100.00
7297;BME280;40758;54.038;11.684;2023-09-12T09:19:07;101167.94;;;20.22;100.00
7297;BME280;40758;54.038;11.684;2023-09-12T09:21:38;101167.69;;;20.13;100.00
7297;BME280;40758;54.038;11.684;2023-09-12T09:24:14;101173.44;;;20.12;100.00
7297;BME280;40758;54.038;11.684;2023-09-12T09:26:51;101155.25;;;20.06;100.00
7297;BME280;40758;54.038;11.684;2023-09-12T09:29:28;101163.25;;;20.17;100.00
7297;BME280;40758;54.038;11.684;2023-09-12T09:32:18;101150.31;;;20.03;100.00
7297;BME280;40758;54.038;11.684;2023-09-12T09:34:49;101162.69;;;20.05;100.00
7297;BME280;40758;54.038;11.684;2023-09-12T09:37:19;101164.66;;;19.95;100.00
7297;BME280;40758;54.038;11.684;2023-09-12T09:39:47;101167.63;;;19.88;100.00
7297;BME280;40758;54.038;11.684;2023-09-12T09:42:23;101167.91;;;19.81;100.00
7297;BME280;40758;54.038;11.684;2023-09-12T09:44:50;101172.31;;;19.82;100.00
7297;BME280;40758;54.038;11.684;2023-09-12T09:47:17;101175.91;;;19.73;100.00
7297;BME280;40758;54.038;11.684;2023-09-12T09:49:45;101174.78;;;19.74;100.00
7297;BME280;40758;54.038;11.684;2023-09-12T09:52:25;101183.34;;;19.77;100.00
7297;BME280;40758;54.038;11.684;2023-09-12T09:54:53;101178.66;;;19.83;100.00
7297;BME280;40758;54.038;11.684;2023-09-12T09:57:20;101174.00;;;19.93;100.00
7297;BME280;40758;54.038;11.684;2023-09-12T09:59:52;101174.00;;;19.99;100.00
7297;BME280;40758;54.038;11.684;2023-09-12T10:02:22;101173.47;;;20.07;100.00
7297;BME280;40758;54.038;11.684;2023-09-12T10:04:53;101164.09;;;20.38;100.00
7297;BME280;40758;54.038;11.684;2023-09-12T10:07:23;101168.53;;;20.50;100.00
7297;BME280;40758;54.038;11.684;2023-09-12T10:09:51;101171.28;;;20.60;100.00
7297;BME280;40758;54.038;11.684;2023-09-12T10:12:18;101169.66;;;20.49;100.00
7297;BME280;40758;54.038;11.684;2023-09-12T10:14:45;101173.47;;;20.37;100.00
7297;BME280;40758;54.038;11.684;2023-09-12T10:17:12;101175.41;;;20.42;100.00
7297;BME280;40758;54.038;11.684;2023-09-12T10:20:52;101178.44;;;20.35;100.00
7297;BME280;40758;54.038;11.684;2023-09-12T10:23:11;101170.72;;;20.27;100.00
7297;BME280;40758;54.038;11.684;2023-09-12T10:25:42;101174.03;;;20.14;100.00
7297;BME280;40758;54.038;11.684;2023-09-12T10:28:11;101178.44;;;20.10;100.00
7297;BME280;40758;54.038;11.684;2023-09-12T10:30:39;101170.72;;;20.07;100.00
7297;BME280;40758;54.038;11.684;2023-09-12T10:33:06;101172.63;;;20.16;100.00
7297;BME280;40758;54.038;11.684;2023-09-12T10:35:34;101174.03;;;20.14;100.00
7297;BME280;40758;54.038;11.684;2023-09-12T10:38:03;101180.63;;;20.23;100.00
7297;BME280;40758;54.038;11.684;2023-09-12T10:40:36;101162.44;;;20.17;100.00
7297;BME280;40758;54.038;11.684;2023-09-12T10:43:10;101150.31;;;20.13;100.00
7297;BME280;40758;54.038;11.684;2023-09-12T10:45:40;101177.88;;;20.28;100.00
7297;BME280;40758;54.038;11.684;2023-09-12T10:48:09;101182.88;;;20.46;100.00
7297;BME280;40758;54.038;11.684;2023-09-12T10:50:37;101173.47;;;20.68;100.00
7297;BME280;40758;54.038;11.684;2023-09-12T10:53:10;101168.75;;;20.94;100.00
7297;BME280;40758;54.038;11.684;2023-09-12T10:55:37;101164.28;;;21.03;100.00
7297;BME280;40758;54.038;11.684;2023-09-12T10:58:07;101174.53;;;21.67;100.00
7297;BME280;40758;54.038;11.684;2023-09-12T11:00:34;101157.28;;;22.25;100.00
7297;BME280;40758;54.038;11.684;2023-09-12T11:03:35;101159.09;;;22.69;100.00
7297;BME280;40758;54.038;11.684;2023-09-12T11:06:02;101163.69;;;22.78;100.00
7297;BME280;40758;54.038;11.684;2023-09-12T11:08:35;101160.03;;;22.59;100.00
7297;BME280;40758;54.038;11.684;2023-09-12T11:11:19;101153.72;;;22.53;100.00
7297;BME280;40758;54.038;11.684;2023-09-12T11:14:07;101154.06;;;22.47;100.00
7297;BME280;40758;54.038;11.684;2023-09-12T11:16:35;101158.75;;;22.17;100.00
7297;BME280;40758;54.038;11.684;2023-09-12T11:19:18;101155.63;;;22.24;100.00
7297;BME280;40758;54.038;11.684;2023-09-12T11:21:52;101151.16;;;22.86;100.00
7297;BME280;40758;54.038;11.684;2023-09-12T11:24:20;101138.28;;;22.47;100.00
7297;BME280;40758;54.038;11.684;2023-09-12T11:26:57;101158.34;;;21.90;100.00
7297;BME280;40758;54.038;11.684;2023-09-12T11:29:35;101156.16;;;21.42;100.00
7297;BME280;40758;54.038;11.684;2023-09-12T11:32:04;101158.94;;;21.37;100.00
7297;BME280;40758;54.038;11.684;2023-09-12T11:34:37;101156.41;;;21.90;100.00
7297;BME280;40758;54.038;11.684;2023-09-12T11:37:09;101151.84;;;22.44;100.00
7297;BME280;40758;54.038;11.684;2023-09-12T11:39:39;101154.38;;;22.98;100.00
7297;BME280;40758;54.038;11.684;2023-09-12T11:42:10;101152.06;;;23.05;100.00
7297;BME280;40758;54.038;11.684;2023-09-12T11:44:38;101146.69;;;22.90;100.00
7297;BME280;40758;54.038;11.684;2023-09-12T11:47:05;101149.38;;;22.71;100.00
7297;BME280;40758;54.038;11.684;2023-09-12T11:49:41;101154.91;;;22.42;100.00
7297;BME280;40758;54.038;11.684;2023-09-12T11:52:12;101153.47;;;22.21;100.00
7297;BME280;40758;54.038;11.684;2023-09-12T11:54:40;101154.56;;;22.20;100.00
7297;BME280;40758;54.038;11.684;2023-09-12T11:57:09;101146.00;;;22.50;100.00
7297;BME280;40758;54.038;11.684;2023-09-12T11:59:40;101150.94;;;23.06;100.00
7297;BME280;40758;54.038;11.684;2023-09-12T12:02:08;101156.34;;;23.83;100.00
7297;BME280;40758;54.038;11.684;2023-09-12T12:04:36;101145.50;;;24.20;100.00
7297;BME280;40758;54.038;11.684;2023-09-12T12:07:04;101129.75;;;23.40;100.00
7297;BME280;40758;54.038;11.684;2023-09-12T12:09:32;101160.06;;;22.54;100.00
7297;BME280;40758;54.038;11.684;2023-09-12T12:12:12;101157.69;;;22.03;100.00
7297;BME280;40758;54.038;11.684;2023-09-12T12:14:40;101148.50;;;21.73;100.00
7297;BME280;40758;54.038;11.684;2023-09-12T12:17:07;101161.63;;;21.52;100.00
7297;BME280;40758;54.038;11.684;2023-09-12T12:19:35;101163.03;;;21.45;100.00
7297;BME280;40758;54.038;11.684;2023-09-12T12:22:06;101143.97;;;21.48;100.00
7297;BME280;40758;54.038;11.684;2023-09-12T12:24:39;101165.19;;;21.58;100.00
7297;BME280;40758;54.038;11.684;2023-09-12T12:27:07;101181.41;;;21.75;100.00
7297;BME280;40758;54.038;11.684;2023-09-12T12:29:36;101170.09;;;21.71;100.00
7297;BME280;40758;54.038;11.684;2023-09-12T12:32:05;101164.97;;;21.94;100.00
7297;BME280;40758;54.038;11.684;2023-09-12T12:34:35;101171.91;;;22.30;100.00
7297;BME280;40758;54.038;11.684;2023-09-12T12:37:28;101150.09;;;22.24;100.00
7297;BME280;40758;54.038;11.684;2023-09-12T12:39:58;101155.78;;;22.38;100.00
7297;BME280;40758;54.038;11.684;2023-09-12T12:42:33;101154.66;;;22.10;100.00
7297;BME280;40758;54.038;11.684;2023-09-12T12:45:19;101150.78;;;22.11;100.00
7297;BME280;40758;54.038;11.684;2023-09-12T12:47:51;101145.34;;;21.90;100.00
7297;BME280;40758;54.038;11.684;2023-09-12T12:50:18;101152.00;;;21.89;100.00
7297;BME280;40758;54.038;11.684;2023-09-12T12:52:48;101144.81;;;21.88;100.00